createdAt,value
2023-03-26T00:01:46.653Z,99702.91
2023-03-26T00:04:14.973Z,99694.13
2023-03-26T00:06:43.015Z,99690.44
2023-03-26T00:09:13.860Z,99687.03
2023-03-26T00:11:44.023Z,99679.94
2023-03-26T00:14:17.724Z,99672.88
2023-03-26T00:16:47.684Z,99685.63
2023-03-26T00:19:16.752Z,99677.69
2023-03-26T00:21:44.886Z,99683.09
2023-03-26T00:24:16.264Z,99674.16
2023-03-26T00:26:48.578Z,99677.16
2023-03-26T00:29:16.975Z,99687.94
2023-03-26T00:31:46.729Z,99683.56
2023-03-26T00:34:18.261Z,99682.84
2023-03-26T00:36:47.412Z,99686.53
2023-03-26T00:39:17.706Z,99695.59
2023-03-26T00:41:47.341Z,99679.56
2023-03-26T00:44:15.569Z,99686.81
2023-03-26T00:46:43.848Z,99677.03
2023-03-26T00:49:14.760Z,99669.09
2023-03-26T00:51:43.250Z,99663.84
2023-03-26T00:54:11.351Z,99674.66
2023-03-26T00:56:39.824Z,99671.09
2023-03-26T00:59:10.294Z,99670.25
2023-03-26T01:01:38.806Z,99657.06
2023-03-26T01:04:30.731Z,99655.38
2023-03-26T01:07:01.643Z,99658.75
2023-03-26T01:09:38.505Z,99659.75
2023-03-26T01:12:09.821Z,99650.13
2023-03-26T01:14:39.744Z,99653.66
2023-03-26T01:17:09.244Z,99651.81
2023-03-26T01:19:44.911Z,99662.75
2023-03-26T01:22:20.161Z,99665.63
2023-03-26T01:24:54.106Z,99659.38
2023-03-26T01:27:32.315Z,99667.63
2023-03-26T01:30:06.177Z,99659.38
2023-03-26T01:32:51.402Z,99666.78
2023-03-26T01:35:31.670Z,99667.78
2023-03-26T01:38:11.691Z,99666.91
2023-03-26T01:40:49.559Z,99668.75
2023-03-26T01:43:26.592Z,99671.59
2023-03-26T01:45:55.882Z,99681.53
2023-03-26T01:48:31.580Z,99674.44
2023-03-26T01:51:00.244Z,99675.28
2023-03-26T01:53:28.580Z,99672.91
2023-03-26T01:56:07.892Z,99671.06
2023-03-26T01:58:40.574Z,99668.38
2023-03-26T02:01:20.123Z,99676.59
2023-03-26T02:03:54.703Z,99674.75
2023-03-26T02:06:30.702Z,99679.44
2023-03-26T02:09:03.609Z,99685.81
2023-03-26T02:11:35.899Z,99689.50
2023-03-26T02:14:06.147Z,99685.81
2023-03-26T02:16:34.570Z,99682.44
2023-03-26T02:19:04.456Z,99691.50
2023-03-26T02:21:34.141Z,99687.13
2023-03-26T02:24:04.194Z,99687.13
2023-03-26T02:26:37.722Z,99683.72
2023-03-26T02:29:05.964Z,99692.81
2023-03-26T02:31:35.809Z,99688.28
2023-03-26T02:34:04.033Z,99686.75
2023-03-26T02:36:32.286Z,99690.13
2023-03-26T02:39:01.037Z,99679.63
2023-03-26T02:41:29.303Z,99681.34
2023-03-26T02:43:58.864Z,99679.63
2023-03-26T02:46:26.978Z,99672.53
2023-03-26T02:48:55.097Z,99671.69
2023-03-26T02:51:23.485Z,99671.84
2023-03-26T02:53:53.704Z,99671.16
2023-03-26T02:56:21.864Z,99668.47
2023-03-26T02:58:49.943Z,99656.97
2023-03-26T03:01:19.397Z,99655.56
2023-03-26T03:03:48.561Z,99667.75
2023-03-26T03:06:20.896Z,99669.72
2023-03-26T03:08:50.033Z,99680.50
2023-03-26T03:11:22.103Z,99671.72
2023-03-26T03:13:50.675Z,99666.34
2023-03-26T03:16:20.261Z,99664.66
2023-03-26T03:18:54.277Z,99670.03
2023-03-26T03:21:22.956Z,99667.50
2023-03-26T03:23:51.303Z,99668.50
2023-03-26T03:26:22.800Z,99657.88
2023-03-26T03:28:51.870Z,99676.75
2023-03-26T03:31:21.798Z,99667.81
2023-03-26T03:33:50.145Z,99669.78
2023-03-26T03:36:22.016Z,99663.53
2023-03-26T03:38:51.577Z,99656.44
2023-03-26T03:41:19.980Z,99655.91
2023-03-26T03:43:48.200Z,99658.44
2023-03-26T03:46:16.314Z,99672.91
2023-03-26T03:48:49.591Z,99676.63
2023-03-26T03:51:18.291Z,99682.00
2023-03-26T03:53:49.495Z,99684.00
2023-03-26T03:56:19.301Z,99682.31
2023-03-26T03:58:47.799Z,99669.81
2023-03-26T04:01:16.998Z,99675.19
2023-03-26T04:03:47.160Z,99678.88
2023-03-26T04:06:19.034Z,99678.19
2023-03-26T04:08:47.656Z,99679.03
2023-03-26T04:11:16.067Z,99680.03
2023-03-26T04:13:44.192Z,99688.28
2023-03-26T04:16:12.635Z,99688.28
2023-03-26T04:18:40.987Z,99692.81
2023-03-26T04:21:12.937Z,99697.34
2023-03-26T04:23:42.342Z,99696.66
2023-03-26T04:26:17.585Z,99690.53
2023-03-26T04:28:49.573Z,99686.00
2023-03-26T04:31:24.248Z,99680.63
2023-03-26T04:33:55.193Z,99680.91
2023-03-26T04:36:29.023Z,99684.59
2023-03-26T04:39:02.316Z,99684.59
2023-03-26T04:41:32.376Z,99682.06
2023-03-26T04:44:02.041Z,99680.38
2023-03-26T04:46:33.734Z,99692.84
2023-03-26T04:49:02.848Z,99700.22
2023-03-26T04:51:39.216Z,99694.84
2023-03-26T04:54:08.089Z,99694.84
2023-03-26T04:56:43.356Z,99682.63
2023-03-26T04:59:15.019Z,99694.41
2023-03-26T05:01:45.810Z,99700.50
2023-03-26T05:04:14.353Z,99697.09
2023-03-26T05:06:43.950Z,99691.72
2023-03-26T05:09:12.077Z,99690.03
2023-03-26T05:11:40.339Z,99682.94
2023-03-26T05:14:08.662Z,99684.63
2023-03-26T05:16:37.888Z,99681.25
2023-03-26T05:19:07.035Z,99673.31
2023-03-26T05:21:35.329Z,99682.25
2023-03-26T05:24:05.676Z,99682.25
2023-03-26T05:26:34.066Z,99680.53
2023-03-26T05:29:05.779Z,99688.63
2023-03-26T05:31:33.918Z,99683.25
2023-03-26T05:34:02.126Z,99678.84
2023-03-26T05:36:33.582Z,99679.69
2023-03-26T05:39:02.247Z,99681.53
2023-03-26T05:41:31.757Z,99681.53
2023-03-26T05:43:59.795Z,99683.47
2023-03-26T05:46:28.028Z,99680.78
2023-03-26T05:48:56.481Z,99687.03
2023-03-26T05:51:24.916Z,99686.16
2023-03-26T05:53:53.100Z,99688.84
2023-03-26T05:56:21.326Z,99683.47
2023-03-26T05:58:52.059Z,99683.47
2023-03-26T06:01:20.819Z,99678.97
2023-03-26T06:03:49.507Z,99680.78
2023-03-26T06:06:20.482Z,99677.13
2023-03-26T06:09:01.085Z,99677.13
2023-03-26T06:11:37.588Z,99673.69
2023-03-26T06:14:07.952Z,99672.72
2023-03-26T06:16:36.185Z,99676.28
2023-03-26T06:19:04.379Z,99670.88
2023-03-26T06:21:32.497Z,99670.00
2023-03-26T06:24:01.043Z,99667.31
2023-03-26T06:26:29.122Z,99662.94
2023-03-26T06:28:57.240Z,99675.41
2023-03-26T06:31:27.339Z,99669.16
2023-03-26T06:33:55.532Z,99665.63
2023-03-26T06:36:23.589Z,99683.47
2023-03-26T06:38:51.843Z,99682.50
2023-03-26T06:41:19.861Z,99676.28
2023-03-26T06:43:48.013Z,99680.09
2023-03-26T06:46:16.691Z,99685.19
2023-03-26T06:48:46.710Z,99671.00
2023-03-26T06:51:16.402Z,99678.09
2023-03-26T06:53:44.724Z,99683.47
2023-03-26T06:56:12.771Z,99686.06
2023-03-26T06:58:41.284Z,99687.91
2023-03-26T07:01:09.471Z,99677.13
2023-03-26T07:03:37.737Z,99678.09
2023-03-26T07:06:08.075Z,99673.47
2023-03-26T07:08:36.208Z,99671.75
2023-03-26T07:11:04.571Z,99672.47
2023-03-26T07:13:32.804Z,99672.47
2023-03-26T07:16:01.300Z,99665.38
2023-03-26T07:18:29.478Z,99653.63
2023-03-26T07:20:59.125Z,99668.78
2023-03-26T07:23:29.215Z,99659.69
2023-03-26T07:25:58.142Z,99659.69
2023-03-26T07:28:34.576Z,99658.00
2023-03-26T07:31:14.783Z,99662.25
2023-03-26T07:33:49.855Z,99659.69
2023-03-26T07:36:26.556Z,99665.94
2023-03-26T07:39:08.709Z,99665.78
2023-03-26T07:41:47.081Z,99676.41
2023-03-26T07:44:45.214Z,99678.41
2023-03-26T07:47:25.709Z,99670.16
2023-03-26T07:49:58.596Z,99666.47
2023-03-26T07:52:28.304Z,99671.88
2023-03-26T07:54:58.761Z,99670.88
2023-03-26T07:57:44.360Z,99671.88
2023-03-26T08:00:18.826Z,99672.72
2023-03-26T08:03:18.249Z,99686.91
2023-03-26T08:05:54.241Z,99669.03
2023-03-26T08:08:34.224Z,99676.97
2023-03-26T08:11:15.849Z,99685.19
2023-03-26T08:13:57.992Z,99674.28
2023-03-26T08:16:32.788Z,99676.97
2023-03-26T08:19:10.872Z,99682.38
2023-03-26T08:21:47.951Z,99677.81
2023-03-26T08:24:22.217Z,99678.69
2023-03-26T08:26:58.483Z,99668.19
2023-03-26T08:29:34.536Z,99680.38
2023-03-26T08:32:05.044Z,99675.97
2023-03-26T08:34:33.211Z,99669.59
2023-03-26T08:37:01.600Z,99665.22
2023-03-26T08:39:29.707Z,99667.59
2023-03-26T08:42:27.472Z,99664.06
2023-03-26T08:45:36.112Z,99665.75
2023-03-26T08:48:44.263Z,99668.16
2023-03-26T08:51:51.438Z,99661.75
2023-03-26T08:54:48.880Z,99661.63
2023-03-26T08:57:38.908Z,99657.66
2023-03-26T09:00:39.132Z,99648.25
2023-03-26T09:03:27.912Z,99650.53
2023-03-26T09:06:37.502Z,99643.13
2023-03-26T09:09:41.963Z,99644.69
2023-03-26T09:12:47.901Z,99646.25
2023-03-26T09:15:51.973Z,99647.78
2023-03-26T09:18:53.661Z,99632.47
2023-03-26T09:21:47.713Z,99639.41
2023-03-26T09:25:17.097Z,99637.41
2023-03-26T09:28:03.612Z,99630.88
2023-03-26T09:31:14.987Z,99630.88
2023-03-26T09:34:03.728Z,99628.72
2023-03-26T09:36:52.818Z,99625.72
2023-03-26T09:39:33.237Z,99626.56
2023-03-26T09:42:17.176Z,99620.06
2023-03-26T09:45:15.436Z,99614.50
2023-03-26T09:48:09.868Z,99615.03
2023-03-26T09:50:57.003Z,99603.25
2023-03-26T09:53:50.633Z,99605.81
2023-03-26T09:56:31.116Z,99599.44
2023-03-26T09:59:19.326Z,99588.50
2023-03-26T10:01:58.528Z,99595.25
2023-03-26T10:04:52.894Z,99588.44
2023-03-26T10:07:48.149Z,99579.34
2023-03-26T10:10:24.945Z,99567.38
2023-03-26T10:13:05.037Z,99570.66
2023-03-26T10:15:58.611Z,99555.16
2023-03-26T10:18:39.761Z,99555.84
2023-03-26T10:21:17.753Z,99557.69
2023-03-26T10:24:12.556Z,99548.59
2023-03-26T10:27:08.589Z,99544.91
2023-03-26T10:30:09.930Z,99550.28
2023-03-26T10:32:48.011Z,99547.59
2023-03-26T10:35:28.488Z,99561.91
2023-03-26T10:38:14.867Z,99554.69
2023-03-26T10:40:52.827Z,99569.84
2023-03-26T10:44:08.737Z,99559.06
2023-03-26T10:47:19.584Z,99555.38
2023-03-26T10:50:23.867Z,99548.00
2023-03-26T10:52:56.204Z,99541.31
2023-03-26T10:55:32.143Z,99554.47
2023-03-26T10:58:04.723Z,99543.41
2023-03-26T11:00:40.552Z,99532.28
2023-03-26T11:03:44.089Z,99528.56
2023-03-26T11:06:23.886Z,99516.63
2023-03-26T11:08:59.180Z,99520.88
2023-03-26T11:11:33.643Z,99506.38
2023-03-26T11:14:15.141Z,99502.69
2023-03-26T11:16:58.152Z,99497.28
2023-03-26T11:19:34.277Z,99504.38
2023-03-26T11:22:09.415Z,99491.88
2023-03-26T11:25:10.011Z,99483.00
2023-03-26T11:27:57.620Z,99479.81
2023-03-26T11:30:37.260Z,99469.03
2023-03-26T11:33:08.833Z,99464.88
2023-03-26T11:35:41.556Z,99463.00
2023-03-26T11:38:17.809Z,99456.44
2023-03-26T11:40:51.101Z,99448.19
2023-03-26T11:43:26.171Z,99441.47
2023-03-26T11:45:54.846Z,99438.13
2023-03-26T11:48:29.241Z,99431.41
2023-03-26T11:51:04.254Z,99426.69
2023-03-26T11:53:38.646Z,99417.25
2023-03-26T11:56:15.170Z,99414.59
2023-03-26T11:58:51.289Z,99408.72
2023-03-26T12:01:30.048Z,99409.06
2023-03-26T12:04:04.176Z,99410.78
2023-03-26T12:06:33.103Z,99391.25
2023-03-26T12:09:01.889Z,99378.06
2023-03-26T12:11:35.409Z,99380.47
2023-03-26T12:14:06.576Z,99371.34
2023-03-26T12:16:36.049Z,99366.63
2023-03-26T12:19:08.224Z,99357.50
2023-03-26T12:21:46.774Z,99354.47
2023-03-26T12:24:28.079Z,99352.28
2023-03-26T12:27:02.120Z,99346.19
2023-03-26T12:29:34.713Z,99337.06
2023-03-26T12:32:08.814Z,99343.84
2023-03-26T12:34:39.597Z,99340.81
2023-03-26T12:37:09.750Z,99339.97
2023-03-26T12:40:10.777Z,99324.25
2023-03-26T12:44:48.224Z,99315.47
2023-03-26T12:45:30.599Z,99304.00
2023-03-26T12:48:04.253Z,99299.75
2023-03-26T12:50:51.019Z,99296.88
2023-03-26T12:53:39.619Z,99291.81
2023-03-26T12:56:19.894Z,99287.72
2023-03-26T12:59:03.939Z,99289.28
2023-03-26T13:01:45.337Z,99279.97
2023-03-26T13:04:42.340Z,99278.94
2023-03-26T13:07:22.148Z,99281.94
2023-03-26T13:10:10.849Z,99271.13
2023-03-26T13:12:51.490Z,99268.44
2023-03-26T13:15:25.897Z,99276.72
2023-03-26T13:18:08.410Z,99283.31
2023-03-26T13:20:51.516Z,99253.56
2023-03-26T13:23:28.662Z,99253.03
2023-03-26T13:26:03.273Z,99237.13
2023-03-26T13:28:42.631Z,99241.34
2023-03-26T13:31:18.391Z,99241.00
2023-03-26T13:33:54.690Z,99239.31
2023-03-26T13:36:31.000Z,99228.47
2023-03-26T13:39:09.444Z,99219.34
2023-03-26T13:41:56.300Z,99213.28
2023-03-26T13:44:34.572Z,99210.72
2023-03-26T13:47:07.555Z,99203.25
2023-03-26T13:49:41.190Z,99199.00
2023-03-26T13:52:13.216Z,99209.47
2023-03-26T13:54:49.660Z,99201.84
2023-03-26T13:57:25.816Z,99206.91
2023-03-26T13:59:59.450Z,99199.44
2023-03-26T14:02:35.392Z,99189.28
2023-03-26T14:05:10.185Z,99194.50
2023-03-26T14:07:47.586Z,99176.59
2023-03-26T14:10:20.791Z,99169.50
2023-03-26T14:12:57.420Z,99184.72
2023-03-26T14:15:29.556Z,99160.72
2023-03-26T14:18:07.582Z,99175.56
2023-03-26T14:21:23.220Z,99164.09
2023-03-26T14:24:06.780Z,99144.47
2023-03-26T14:26:59.490Z,99140.38
2023-03-26T14:29:56.642Z,99159.50
2023-03-26T14:32:42.154Z,99148.31
2023-03-26T14:35:33.687Z,99138.31
2023-03-26T14:38:43.427Z,99140.84
2023-03-26T14:41:24.062Z,99135.28
2023-03-26T14:44:22.098Z,99118.00
2023-03-26T14:47:04.684Z,99119.31
2023-03-26T14:50:20.237Z,99119.81
2023-03-26T14:52:50.465Z,99113.00
2023-03-26T14:55:39.833Z,99112.16
2023-03-26T14:58:29.260Z,99107.41
2023-03-26T15:01:22.906Z,99098.25
2023-03-26T15:04:35.830Z,99096.69
2023-03-26T15:07:42.767Z,99084.84
2023-03-26T15:10:19.648Z,99081.75
2023-03-26T15:13:03.744Z,99084.13
2023-03-26T15:16:09.146Z,99079.34
2023-03-26T15:19:27.462Z,99071.03
2023-03-26T15:22:17.105Z,99077.31
2023-03-26T15:25:10.998Z,99066.28
2023-03-26T15:27:58.357Z,99054.44
2023-03-26T15:31:16.566Z,99055.28
2023-03-26T15:34:21.415Z,99049.88
2023-03-26T15:37:39.659Z,99043.63
2023-03-26T15:40:38.182Z,99048.34
2023-03-26T15:43:12.010Z,99040.59
2023-03-26T15:45:42.917Z,99044.34
2023-03-26T15:48:39.143Z,99038.44
2023-03-26T15:51:23.555Z,99043.00
2023-03-26T15:53:58.668Z,99035.91
2023-03-26T15:56:53.187Z,99030.69
2023-03-26T15:59:39.131Z,99030.50
2023-03-26T16:02:18.026Z,99025.09
2023-03-26T16:04:52.301Z,99019.66
2023-03-26T16:07:42.950Z,99011.72
2023-03-26T16:10:29.309Z,99007.16
2023-03-26T16:13:33.289Z,99001.09
2023-03-26T16:16:18.324Z,98992.31
2023-03-26T16:18:49.059Z,98987.06
2023-03-26T16:21:53.491Z,98972.88
2023-03-26T16:24:28.265Z,98967.66
2023-03-26T16:27:09.472Z,98964.28
2023-03-26T16:30:20.748Z,98966.34
2023-03-26T16:32:56.580Z,98957.53
2023-03-26T16:35:41.757Z,98965.88
2023-03-26T16:38:16.157Z,98969.59
2023-03-26T16:41:04.213Z,98969.97
2023-03-26T16:43:59.860Z,98968.47
2023-03-26T16:46:39.410Z,98971.34
2023-03-26T16:49:20.982Z,98974.25
2023-03-26T16:52:06.762Z,98971.72
2023-03-26T16:54:46.001Z,98972.94
2023-03-26T16:57:29.390Z,98975.66
2023-03-26T17:00:23.521Z,98969.59
2023-03-26T17:02:59.943Z,98969.75
2023-03-26T17:05:37.350Z,98974.31
2023-03-26T17:08:19.070Z,98962.00
2023-03-26T17:11:15.297Z,98971.97
2023-03-26T17:13:51.601Z,98970.31
2023-03-26T17:16:27.019Z,98970.31
2023-03-26T17:19:05.347Z,98967.97
2023-03-26T17:21:45.891Z,98976.09
2023-03-26T17:24:26.662Z,98979.81
2023-03-26T17:27:04.391Z,98975.41
2023-03-26T17:29:52.843Z,98972.72
2023-03-26T17:32:23.194Z,98973.72
2023-03-26T17:35:03.684Z,98974.75
2023-03-26T17:37:37.369Z,98979.16
2023-03-26T17:40:31.765Z,98973.91
2023-03-26T17:43:06.441Z,98971.41
2023-03-26T17:45:38.026Z,98962.63
2023-03-26T17:48:16.564Z,98968.69
2023-03-26T17:50:51.873Z,98973.28
2023-03-26T17:53:24.484Z,98968.03
2023-03-26T17:55:53.804Z,98966.38
2023-03-26T17:58:28.153Z,98969.91
2023-03-26T18:01:06.580Z,98970.25
2023-03-26T18:03:44.195Z,98972.97
2023-03-26T18:06:15.201Z,98971.28
2023-03-26T18:09:07.273Z,98968.75
2023-03-26T18:12:06.986Z,98973.34
2023-03-26T18:15:04.087Z,98969.13
2023-03-26T18:17:39.902Z,98966.63
2023-03-26T18:20:21.665Z,98965.28
2023-03-26T18:22:51.865Z,98969.00
2023-03-26T18:25:25.683Z,98963.97
2023-03-26T18:27:54.545Z,98956.03
2023-03-26T18:30:26.009Z,98952.66
2023-03-26T18:33:00.935Z,98957.41
2023-03-26T18:35:40.663Z,98955.72
2023-03-26T18:38:17.167Z,98942.56
2023-03-26T18:40:47.418Z,98936.63
2023-03-26T18:43:32.589Z,98938.50
2023-03-26T18:46:07.047Z,98931.59
2023-03-26T18:48:35.291Z,98934.50
2023-03-26T18:51:07.350Z,98934.50
2023-03-26T18:53:40.296Z,98926.56
2023-03-26T18:56:21.555Z,98925.91
2023-03-26T18:58:53.338Z,98918.97
2023-03-26T19:01:26.155Z,98909.19
2023-03-26T19:03:55.381Z,98903.97
2023-03-26T19:06:26.142Z,98905.84
2023-03-26T19:08:56.173Z,98897.06
2023-03-26T19:11:27.305Z,98906.22
2023-03-26T19:14:07.821Z,98890.31
2023-03-26T19:16:43.433Z,98890.50
2023-03-26T19:19:18.253Z,98887.16
2023-03-26T19:21:51.744Z,98891.72
2023-03-26T19:24:22.631Z,98887.34
2023-03-26T19:26:51.771Z,98882.97
2023-03-26T19:29:24.196Z,98883.28
2023-03-26T19:31:54.110Z,98876.22
2023-03-26T19:34:33.373Z,98870.81
2023-03-26T19:37:05.708Z,98871.19
2023-03-26T19:39:41.679Z,98865.78
2023-03-26T19:42:15.926Z,98858.88
2023-03-26T19:44:45.272Z,98850.94
2023-03-26T19:47:19.690Z,98850.13
2023-03-26T19:49:57.061Z,98839.47
2023-03-26T19:52:28.758Z,98844.22
2023-03-26T19:55:02.112Z,98832.56
2023-03-26T19:57:36.428Z,98831.06
2023-03-26T20:00:14.607Z,98816.53
2023-03-26T20:02:46.012Z,98806.75
2023-03-26T20:05:19.479Z,98806.09
2023-03-26T20:07:50.301Z,98803.41
2023-03-26T20:10:19.928Z,98791.91
2023-03-26T20:12:48.320Z,98789.38
2023-03-26T20:15:20.160Z,98783.34
2023-03-26T20:17:50.236Z,98775.22
2023-03-26T20:20:20.257Z,98768.34
2023-03-26T20:22:52.688Z,98767.69
2023-03-26T20:25:24.833Z,98762.94
2023-03-26T20:27:54.671Z,98751.47
2023-03-26T20:30:36.865Z,98754.31
2023-03-26T20:33:13.462Z,98747.09
2023-03-26T20:35:43.013Z,98746.41
2023-03-26T20:38:13.300Z,98745.56
2023-03-26T20:40:42.418Z,98744.06
2023-03-26T20:43:13.678Z,98741.38
2023-03-26T20:45:42.757Z,98734.31
2023-03-26T20:48:11.922Z,98720.97
2023-03-26T20:51:01.740Z,98735.50
2023-03-26T20:53:31.549Z,98729.28
2023-03-26T20:56:00.038Z,98728.59
2023-03-26T20:58:31.723Z,98722.00
2023-03-26T21:01:01.765Z,98720.13
2023-03-26T21:03:30.661Z,98716.41
2023-03-26T21:06:02.084Z,98716.41
2023-03-26T21:08:35.806Z,98708.31
2023-03-26T21:11:05.456Z,98708.31
2023-03-26T21:13:40.548Z,98709.16
2023-03-26T21:16:12.128Z,98704.59
2023-03-26T21:18:42.091Z,98702.91
2023-03-26T21:21:26.327Z,98698.53
2023-03-26T21:24:05.084Z,98705.59
2023-03-26T21:26:44.143Z,98703.94
2023-03-26T21:29:12.914Z,98725.53
2023-03-26T21:31:41.645Z,98757.97
2023-03-26T21:34:13.268Z,98755.25
2023-03-26T21:36:42.035Z,98755.25
2023-03-26T21:39:12.886Z,98760.66
2023-03-26T21:41:46.084Z,98754.94
2023-03-26T21:44:15.334Z,98762.53
2023-03-26T21:46:45.550Z,98754.56
2023-03-26T21:49:16.155Z,98765.38
2023-03-26T21:51:45.687Z,98763.53
2023-03-26T21:54:23.672Z,98770.78
2023-03-26T21:57:11.544Z,98762.88
2023-03-26T21:59:46.363Z,98759.13
2023-03-26T22:02:21.169Z,98755.59
2023-03-26T22:04:54.530Z,98750.19
2023-03-26T22:07:28.494Z,98748.53
2023-03-26T22:09:59.609Z,98746.84
2023-03-26T22:12:27.802Z,98744.13
2023-03-26T22:14:56.063Z,98742.28
2023-03-26T22:17:24.213Z,98731.66
2023-03-26T22:19:52.432Z,98734.38
2023-03-26T22:22:22.111Z,98723.56
2023-03-26T22:24:50.225Z,98722.91
2023-03-26T22:27:19.816Z,98716.66
2023-03-26T22:29:49.629Z,98713.13
2023-03-26T22:32:17.685Z,98719.38
2023-03-26T22:34:45.995Z,98718.53
2023-03-26T22:37:14.459Z,98715.19
2023-03-26T22:39:42.918Z,98716.16
2023-03-26T22:42:10.970Z,98717.88
2023-03-26T22:44:40.857Z,98706.75
2023-03-26T22:47:09.432Z,98706.56
2023-03-26T22:49:39.982Z,98708.44
2023-03-26T22:52:08.214Z,98698.47
2023-03-26T22:54:37.124Z,98697.81
2023-03-26T22:57:05.349Z,98687.84
2023-03-26T22:59:33.845Z,98685.34
2023-03-26T23:02:03.326Z,98685.34
2023-03-26T23:04:32.357Z,98676.56
2023-03-26T23:07:00.863Z,98676.72
2023-03-26T23:09:29.492Z,98668.63
2023-03-26T23:11:58.108Z,98673.38
2023-03-26T23:14:26.454Z,98670.66
2023-03-26T23:16:55.019Z,98673.38
2023-03-26T23:19:24.644Z,98667.31
2023-03-26T23:21:53.069Z,98664.78
2023-03-26T23:24:21.167Z,98656.69
2023-03-26T23:26:51.079Z,98654.00
2023-03-26T23:29:19.602Z,98657.72
2023-03-26T23:31:48.022Z,98648.13
2023-03-26T23:34:17.076Z,98646.63
2023-03-26T23:36:49.930Z,98642.72
2023-03-26T23:39:21.329Z,98645.59
2023-03-26T23:41:49.805Z,98640.19
2023-03-26T23:44:17.908Z,98627.91
2023-03-26T23:46:45.987Z,98629.75
2023-03-26T23:49:14.949Z,98626.41
2023-03-26T23:51:43.318Z,98617.47
2023-03-26T23:54:12.746Z,98608.53
2023-03-26T23:56:40.795Z,98606.69
2023-03-26T23:59:08.860Z,98602.31
